Time;durP1;ratioP1;P1;durP2;ratioP2;P2;SDS_P1;SDS_P2;PMS_P1;PMS_P2;Temp;Humidity;BMP_temperature;BMP_pressure;BME280_temperature;BME280_humidity;BME280_pressure;Samples;Min_cycle;Max_cycle;Signal;HPM_P1;HPM_P2
2022/04/08 00:00:17;;;;;;;5.17;0.30;;;8.70;99.90;;;;;;4959135;28;20037;-85
2022/04/08 00:02:43;;;;;;;1.60;0.27;;;8.80;99.90;;;;;;4952846;28;20031;-84
2022/04/08 00:05:10;;;;;;;2.83;0.20;;;8.70;99.90;;;;;;4952821;28;20023;-85
2022/04/08 00:07:35;;;;;;;4.20;0.40;;;8.70;99.90;;;;;;4953789;28;20019;-85
2022/04/08 00:10:03;;;;;;;3.87;0.40;;;8.70;99.90;;;;;;4952863;29;20038;-85
2022/04/08 00:12:29;;;;;;;1.60;0.30;;;8.70;99.90;;;;;;4948292;28;20031;-85
2022/04/08 00:14:54;;;;;;;2.72;0.20;;;8.70;99.90;;;;;;4933906;29;20035;-85
2022/04/08 00:17:20;;;;;;;1.80;0.30;;;8.70;99.90;;;;;;4933496;29;20390;-86
2022/04/08 00:19:46;;;;;;;1.42;0.38;;;8.70;99.90;;;;;;4933552;29;20110;-85
2022/04/08 00:22:11;;;;;;;3.20;0.28;;;8.70;99.90;;;;;;4951610;28;20109;-85
2022/04/08 00:24:37;;;;;;;5.28;0.40;;;8.70;99.90;;;;;;4951808;28;20016;-84
2022/04/08 00:27:02;;;;;;;1.02;0.20;;;8.60;99.90;;;;;;4951281;28;20095;-84
2022/04/08 00:29:28;;;;;;;2.30;0.20;;;8.60;99.90;;;;;;4950849;28;20039;-85
2022/04/08 00:31:57;;;;;;;0.57;0.20;;;8.60;99.90;;;;;;4952863;28;20120;-85
2022/04/08 00:34:25;;;;;;;3.17;0.60;;;8.70;99.90;;;;;;4953071;28;20039;-85
2022/04/08 00:36:50;;;;;;;1.97;0.40;;;8.60;99.90;;;;;;4950415;28;20054;-84
2022/04/08 00:39:16;;;;;;;3.80;0.97;;;8.60;99.90;;;;;;4951637;28;20598;-85
2022/04/08 00:41:42;;;;;;;2.60;0.30;;;8.60;99.90;;;;;;4951642;29;20049;-85
2022/04/08 00:44:07;;;;;;;1.80;0.30;;;8.70;99.90;;;;;;4954061;28;20079;-85
2022/04/08 00:46:33;;;;;;;0.53;0.13;;;8.60;99.90;;;;;;4954549;28;20038;-85
2022/04/08 00:48:59;;;;;;;2.87;0.40;;;8.70;99.90;;;;;;4956101;28;20031;-85
2022/04/08 00:51:25;;;;;;;1.67;0.30;;;8.60;99.90;;;;;;4956245;28;20035;-85
2022/04/08 00:53:51;;;;;;;1.57;0.30;;;8.60;99.90;;;;;;4957064;28;20158;-85
2022/04/08 00:56:18;;;;;;;1.80;0.30;;;8.60;99.90;;;;;;4955651;28;20082;-85
2022/04/08 00:58:44;;;;;;;2.47;0.40;;;8.50;99.90;;;;;;4956268;28;20401;-85
2022/04/08 01:01:10;;;;;;;0.87;0.13;;;8.50;99.90;;;;;;4954999;28;20034;-85
2022/04/08 01:03:36;;;;;;;3.50;0.40;;;8.50;99.90;;;;;;4956509;28;20036;-84
2022/04/08 01:06:01;;;;;;;0.20;0.10;;;8.50;99.90;;;;;;4953908;28;20027;-84
2022/04/08 01:08:28;;;;;;;0.70;0.20;;;8.50;99.90;;;;;;4963328;28;20046;-85
2022/04/08 01:10:54;;;;;;;1.67;0.70;;;8.50;99.90;;;;;;4966428;28;20149;-84
2022/04/08 01:13:20;;;;;;;1.27;0.30;;;8.40;99.90;;;;;;4951961;28;20054;-85
2022/04/08 01:15:46;;;;;;;1.40;0.27;;;8.50;99.90;;;;;;4955278;28;20038;-85
2022/04/08 01:18:12;;;;;;;2.80;0.47;;;8.50;99.90;;;;;;4955957;28;20039;-84
2022/04/08 01:20:38;;;;;;;1.93;0.40;;;8.40;99.90;;;;;;4954545;28;20035;-85
2022/04/08 01:23:05;;;;;;;1.50;0.23;;;8.40;99.90;;;;;;4954498;29;20370;-84
2022/04/08 01:25:31;;;;;;;1.07;0.10;;;8.40;99.90;;;;;;4955306;28;20051;-85
2022/04/08 01:27:56;;;;;;;2.45;0.17;;;8.40;99.90;;;;;;4954248;28;20027;-84
2022/04/08 01:30:22;;;;;;;1.83;0.30;;;8.40;99.90;;;;;;4950688;28;20041;-85
2022/04/08 01:32:48;;;;;;;1.70;0.10;;;8.40;99.90;;;;;;4957516;28;20107;-86
2022/04/08 01:35:13;;;;;;;1.90;0.33;;;8.30;99.90;;;;;;4977900;28;20020;-85
2022/04/08 01:37:39;;;;;;;2.20;0.30;;;8.30;99.90;;;;;;4970555;28;20503;-85
2022/04/08 01:40:05;;;;;;;0.93;0.20;;;8.30;99.90;;;;;;4944463;28;20036;-84
2022/04/08 01:42:31;;;;;;;1.77;0.20;;;8.30;99.90;;;;;;4936333;29;20203;-85
2022/04/08 01:44:57;;;;;;;2.10;0.20;;;8.30;99.90;;;;;;4963094;28;20170;-85
2022/04/08 01:47:23;;;;;;;1.00;0.30;;;8.30;99.90;;;;;;4953757;29;20027;-85
2022/04/08 01:49:48;;;;;;;5.23;0.60;;;8.20;99.90;;;;;;4950082;28;20031;-85
2022/04/08 01:52:14;;;;;;;1.17;0.20;;;8.20;99.90;;;;;;4935907;29;20024;-85
2022/04/08 01:54:40;;;;;;;1.97;0.20;;;8.10;99.90;;;;;;4935996;29;20028;-85
2022/04/08 01:57:06;;;;;;;0.20;0.10;;;8.20;99.90;;;;;;4934131;29;20035;-84
2022/04/08 01:59:32;;;;;;;1.40;0.20;;;8.20;99.90;;;;;;4935354;29;20581;-85
2022/04/08 02:01:59;;;;;;;1.90;0.17;;;8.10;99.90;;;;;;4935796;29;20027;-83
2022/04/08 02:04:25;;;;;;;4.03;0.30;;;8.20;99.90;;;;;;4955863;28;20544;-85
2022/04/08 02:06:51;;;;;;;0.57;0.20;;;8.20;99.90;;;;;;4952902;28;20093;-84
2022/04/08 02:09:18;;;;;;;2.70;0.40;;;8.20;99.90;;;;;;4952302;28;20525;-85
2022/04/08 02:11:44;;;;;;;2.07;0.30;;;8.20;99.90;;;;;;4962143;28;20024;-85
2022/04/08 02:14:10;;;;;;;0.73;0.20;;;8.20;99.90;;;;;;4969190;28;20035;-84
2022/04/08 02:16:35;;;;;;;1.80;0.20;;;8.10;99.90;;;;;;4952950;29;20028;-84
2022/04/08 02:19:01;;;;;;;1.53;0.13;;;8.10;99.90;;;;;;4954145;28;20023;-85
2022/04/08 02:21:28;;;;;;;2.70;0.30;;;8.10;99.90;;;;;;4953216;29;20067;-85
2022/04/08 02:23:54;;;;;;;1.23;0.20;;;8.00;99.90;;;;;;4953100;29;20023;-85
2022/04/08 02:26:20;;;;;;;1.93;0.10;;;8.00;99.90;;;;;;4953119;28;20137;-85
2022/04/08 02:28:46;;;;;;;2.40;0.50;;;8.00;99.90;;;;;;4935760;29;20659;-85
2022/04/08 02:31:12;;;;;;;2.87;0.77;;;7.90;99.90;;;;;;4935541;29;20036;-85
2022/04/08 02:33:37;;;;;;;0.90;0.23;;;7.90;99.90;;;;;;4948549;28;20036;-85
2022/04/08 02:36:04;;;;;;;2.00;0.60;;;7.90;99.90;;;;;;4953883;28;20027;-85
2022/04/08 02:38:30;;;;;;;0.87;0.10;;;7.90;99.90;;;;;;4954492;28;20397;-85
2022/04/08 02:40:56;;;;;;;1.47;0.33;;;7.80;99.90;;;;;;4953936;28;20046;-85
2022/04/08 02:43:22;;;;;;;0.73;0.10;;;7.80;99.90;;;;;;4953978;28;20031;-85
2022/04/08 02:45:48;;;;;;;1.30;0.17;;;7.80;99.90;;;;;;4953422;28;20197;-85
2022/04/08 02:48:14;;;;;;;2.17;0.23;;;7.70;99.90;;;;;;4952420;28;20493;-85
2022/04/08 02:50:43;;;;;;;1.80;0.20;;;7.70;99.90;;;;;;4953634;28;20023;-85
2022/04/08 02:53:08;;;;;;;0.73;0.10;;;7.70;99.90;;;;;;4953007;28;20038;-85
2022/04/08 02:55:35;;;;;;;1.40;0.20;;;7.60;99.90;;;;;;4933224;29;20016;-85
2022/04/08 02:58:04;;;;;;;0.20;0.10;;;7.60;99.90;;;;;;4933863;29;20078;-84
2022/04/08 03:00:30;;;;;;;1.73;0.30;;;7.60;99.90;;;;;;4932999;29;20024;-85
2022/04/08 03:02:56;;;;;;;3.63;0.33;;;7.60;99.90;;;;;;4934889;29;20104;-83
2022/04/08 03:05:21;;;;;;;2.97;0.50;;;7.60;99.90;;;;;;4936432;29;20032;-86
2022/04/08 03:07:47;;;;;;;3.17;0.20;;;7.60;99.90;;;;;;4939454;29;20477;-85
2022/04/08 03:10:13;;;;;;;1.77;0.30;;;7.70;99.90;;;;;;4937832;29;20059;-85
2022/04/08 03:12:39;;;;;;;3.17;0.53;;;7.70;99.90;;;;;;4936948;29;20035;-85
2022/04/08 03:15:06;;;;;;;3.07;0.40;;;7.70;99.90;;;;;;4936429;29;20036;-85
2022/04/08 03:17:32;;;;;;;2.73;0.20;;;7.70;99.90;;;;;;4942355;28;20148;-85
2022/04/08 03:19:58;;;;;;;0.20;0.10;;;7.70;99.90;;;;;;4950373;28;20031;-85
2022/04/08 03:22:24;;;;;;;3.00;0.20;;;7.70;99.90;;;;;;4937028;29;20090;-84
2022/04/08 03:24:51;;;;;;;2.47;0.40;;;7.60;99.90;;;;;;4935933;29;20043;-84
2022/04/08 03:27:17;;;;;;;2.20;0.20;;;7.60;99.90;;;;;;4935897;29;20024;-85
2022/04/08 03:29:43;;;;;;;0.80;0.23;;;7.60;99.90;;;;;;4964972;28;20042;-85
2022/04/08 03:32:09;;;;;;;5.27;0.40;;;7.50;99.90;;;;;;4954444;28;20114;-85
2022/04/08 03:34:35;;;;;;;0.93;0.10;;;7.60;99.90;;;;;;4955011;29;20031;-85
2022/04/08 03:37:01;;;;;;;1.23;0.20;;;7.50;99.90;;;;;;4955224;28;20031;-86
2022/04/08 03:39:27;;;;;;;4.10;0.50;;;7.50;99.90;;;;;;4954617;29;20042;-85
2022/04/08 03:41:53;;;;;;;2.90;0.40;;;7.40;99.90;;;;;;4959266;28;20114;-84
2022/04/08 03:44:19;;;;;;;3.47;0.30;;;7.50;99.90;;;;;;4963160;28;20054;-85
2022/04/08 03:46:46;;;;;;;1.57;0.30;;;7.50;99.90;;;;;;4960134;28;20470;-85
2022/04/08 03:49:15;;;;;;;0.67;0.20;;;7.50;99.90;;;;;;4953428;28;20034;-85
2022/04/08 03:51:45;;;;;;;1.83;0.37;;;7.50;99.90;;;;;;4936852;29;20104;-85
2022/04/08 03:54:12;;;;;;;3.97;0.30;;;7.40;99.90;;;;;;4935239;29;20035;-85
2022/04/08 03:56:41;;;;;;;1.57;0.40;;;7.40;99.90;;;;;;4950818;28;20509;-86
2022/04/08 03:59:07;;;;;;;1.83;0.40;;;7.30;99.90;;;;;;4951708;28;20454;-85
2022/04/08 04:01:33;;;;;;;4.67;0.40;;;7.30;99.90;;;;;;4954192;28;20074;-86
2022/04/08 04:03:59;;;;;;;1.13;0.20;;;7.30;99.90;;;;;;4955099;28;20038;-85
2022/04/08 04:06:24;;;;;;;2.17;0.20;;;7.30;99.90;;;;;;4954769;28;20016;-85
2022/04/08 04:08:50;;;;;;;0.83;0.13;;;7.30;99.90;;;;;;4963671;28;20027;-85
2022/04/08 04:11:16;;;;;;;1.87;0.30;;;7.30;99.90;;;;;;4974682;28;20031;-85
2022/04/08 04:13:45;;;;;;;0.83;0.10;;;7.30;99.90;;;;;;4973518;28;20031;-85
2022/04/08 04:16:11;;;;;;;0.87;0.30;;;7.40;99.90;;;;;;4967318;28;20053;-84
2022/04/08 04:18:37;;;;;;;4.13;0.33;;;7.30;99.90;;;;;;4953209;28;20031;-84
2022/04/08 04:21:03;;;;;;;3.20;0.40;;;7.30;99.90;;;;;;4956728;29;20035;-83
2022/04/08 04:23:31;;;;;;;3.23;0.37;;;7.30;99.90;;;;;;4956129;28;20130;-85
2022/04/08 04:25:57;;;;;;;1.47;0.20;;;7.30;99.90;;;;;;4954720;28;20691;-84
2022/04/08 04:28:23;;;;;;;3.23;0.30;;;7.30;99.90;;;;;;4956921;28;20051;-85
2022/04/08 04:30:49;;;;;;;2.13;0.23;;;7.30;99.90;;;;;;4954546;28;20062;-84
2022/04/08 04:33:14;;;;;;;3.37;0.90;;;7.20;99.90;;;;;;4954847;28;20487;-84
2022/04/08 04:35:40;;;;;;;3.33;0.30;;;7.20;99.90;;;;;;4953124;28;20035;-84
2022/04/08 04:38:05;;;;;;;0.40;0.17;;;7.40;99.90;;;;;;4957098;28;20477;-84
2022/04/08 04:40:31;;;;;;;2.50;0.40;;;7.20;99.90;;;;;;4960416;28;20042;-84
2022/04/08 04:42:57;;;;;;;1.37;0.33;;;7.20;99.90;;;;;;4975526;28;20031;-83
2022/04/08 04:45:24;;;;;;;2.23;0.20;;;7.20;99.90;;;;;;4975912;28;20031;-83
2022/04/08 04:47:50;;;;;;;0.83;0.10;;;7.20;99.90;;;;;;4969106;28;20031;-83
2022/04/08 04:50:15;;;;;;;2.03;0.40;;;7.20;99.90;;;;;;4963802;28;20019;-83
2022/04/08 04:52:41;;;;;;;3.77;0.37;;;7.20;99.90;;;;;;4966533;28;20494;-83
2022/04/08 04:55:07;;;;;;;2.50;0.40;;;7.20;99.90;;;;;;4963819;28;20034;-84
2022/04/08 04:57:34;;;;;;;0.50;0.10;;;7.20;99.90;;;;;;4956120;28;20027;-84
2022/04/08 05:00:01;;;;;;;1.83;0.27;;;7.20;99.90;;;;;;4960181;28;20027;-83
2022/04/08 05:02:27;;;;;;;3.23;0.47;;;7.30;99.90;;;;;;4960936;28;20023;-84
2022/04/08 05:04:53;;;;;;;0.80;0.30;;;7.30;99.90;;;;;;4958620;28;20027;-83
2022/04/08 05:07:19;;;;;;;1.60;0.30;;;7.40;99.90;;;;;;4952053;28;20039;-85
2022/04/08 05:09:44;;;;;;;4.23;0.47;;;7.40;99.90;;;;;;4951227;28;20035;-84
2022/04/08 05:12:10;;;;;;;0.40;0.10;;;7.40;99.90;;;;;;4956049;28;20535;-85
2022/04/08 05:14:36;;;;;;;0.60;0.20;;;7.40;99.90;;;;;;4954652;28;20034;-86
2022/04/08 05:17:03;;;;;;;2.90;0.50;;;7.40;99.90;;;;;;4957591;28;20042;-85
2022/04/08 05:19:29;;;;;;;1.40;0.43;;;7.40;99.90;;;;;;4957175;28;20034;-85
2022/04/08 05:22:00;;;;;;;0.83;0.20;;;7.40;99.90;;;;;;4977693;23;20362;-88
2022/04/08 05:24:28;;;;;;;0.82;0.20;;;7.40;99.90;;;;;;4971711;28;20536;-88
2022/04/08 05:27:03;;;;;;;1.60;0.20;;;7.40;99.90;;;;;;4963763;28;20034;-89
2022/04/08 05:29:35;;;;;;;2.53;0.30;;;7.40;99.90;;;;;;4973686;28;20023;-89
2022/04/08 05:32:04;;;;;;;0.50;0.13;;;7.40;99.90;;;;;;4964419;28;20089;-89
2022/04/08 05:34:34;;;;;;;1.63;0.30;;;7.40;99.90;;;;;;4963960;28;20027;-88
2022/04/08 05:37:00;;;;;;;1.73;0.30;;;7.40;99.90;;;;;;4974739;28;20035;-86
2022/04/08 05:39:25;;;;;;;4.23;0.90;;;7.30;99.90;;;;;;4967089;28;20030;-86
2022/04/08 05:41:51;;;;;;;1.93;0.43;;;7.40;99.90;;;;;;4969483;28;20074;-87
2022/04/08 05:44:17;;;;;;;1.83;0.57;;;7.30;99.90;;;;;;4972253;28;20130;-86
2022/04/08 05:46:43;;;;;;;3.17;0.32;;;7.40;99.90;;;;;;4963375;28;20113;-88
2022/04/08 05:49:09;;;;;;;2.60;0.40;;;7.50;99.90;;;;;;4955394;28;20023;-87
2022/04/08 05:51:35;;;;;;;2.27;0.30;;;7.40;99.90;;;;;;4971282;28;20051;-87
2022/04/08 05:54:01;;;;;;;4.53;0.47;;;7.40;99.90;;;;;;4972201;28;20066;-87
2022/04/08 05:56:27;;;;;;;2.83;0.43;;;7.50;99.90;;;;;;4970999;28;20031;-87
2022/04/08 05:59:02;;;;;;;1.20;0.40;;;7.50;99.90;;;;;;4972931;28;20027;-87
2022/04/08 06:01:28;;;;;;;0.93;0.20;;;7.50;99.90;;;;;;4970023;28;20023;-87
2022/04/08 06:03:54;;;;;;;1.23;0.30;;;7.60;99.90;;;;;;4979449;28;20033;-87
2022/04/08 06:06:30;;;;;;;0.83;0.20;;;7.30;99.90;;;;;;4959815;28;20054;-88
2022/04/08 06:08:56;;;;;;;1.43;0.23;;;7.50;99.90;;;;;;4979342;28;20727;-87
2022/04/08 06:11:32;;;;;;;1.67;0.20;;;7.50;99.90;;;;;;4962299;28;20490;-87
2022/04/08 06:13:59;;;;;;;2.53;0.30;;;7.50;99.90;;;;;;4964436;28;20045;-86
2022/04/08 06:16:25;;;;;;;1.33;0.30;;;7.50;99.90;;;;;;4976055;28;20114;-87
2022/04/08 06:18:55;;;;;;;4.33;0.20;;;7.50;99.90;;;;;;4972920;28;20027;-87
2022/04/08 06:21:25;;;;;;;0.80;0.20;;;7.40;99.90;;;;;;4964994;28;20031;-87
2022/04/08 06:23:54;;;;;;;2.00;0.40;;;7.60;99.90;;;;;;4969300;28;20031;-85
2022/04/08 06:26:23;;;;;;;3.47;0.30;;;7.40;99.90;;;;;;4975118;28;20113;-88
2022/04/08 06:28:50;;;;;;;2.73;0.77;;;7.30;99.90;;;;;;4969467;28;20031;-88
2022/04/08 06:31:16;;;;;;;6.30;0.50;;;7.50;99.90;;;;;;4971283;28;20050;-88
2022/04/08 06:33:42;;;;;;;4.73;0.53;;;7.30;99.90;;;;;;4969021;28;20096;-88
2022/04/08 06:36:08;;;;;;;2.37;0.30;;;7.20;99.90;;;;;;4967513;28;20030;-86
2022/04/08 06:38:34;;;;;;;1.70;0.27;;;7.10;99.90;;;;;;4970905;28;20034;-88
2022/04/08 06:41:00;;;;;;;1.13;0.27;;;7.10;99.90;;;;;;4965522;28;20055;-87
2022/04/08 06:43:25;;;;;;;1.00;0.20;;;7.20;99.90;;;;;;4971316;28;20089;-87
2022/04/08 06:45:59;;;;;;;1.17;0.20;;;7.10;99.90;;;;;;4967833;28;20036;-88
2022/04/08 06:48:25;;;;;;;0.63;0.23;;;7.10;99.90;;;;;;4968185;28;20024;-87
2022/04/08 06:50:50;;;;;;;3.27;0.50;;;6.90;99.90;;;;;;4974184;28;20034;-87
2022/04/08 06:53:19;;;;;;;2.33;0.40;;;7.00;99.90;;;;;;4970836;28;20508;-89
2022/04/08 06:56:15;;;;;;;2.70;0.20;;;7.00;99.90;;;;;;4970722;28;20038;-90
2022/04/08 06:58:43;;;;;;;1.67;0.20;;;6.90;99.90;;;;;;4965235;28;20140;-88
2022/04/08 07:01:11;;;;;;;2.03;0.30;;;6.80;99.90;;;;;;4963174;28;20038;-90
2022/04/08 07:03:38;;;;;;;0.30;0.10;;;6.80;99.90;;;;;;4956945;28;20031;-88
2022/04/08 07:06:04;;;;;;;0.77;0.20;;;6.70;99.90;;;;;;4967363;28;20552;-90
2022/04/08 07:08:29;;;;;;;0.40;0.10;;;6.70;99.90;;;;;;4969605;28;20026;-89
2022/04/08 07:10:58;;;;;;;2.37;0.60;;;6.70;99.90;;;;;;4972679;28;20034;-89
2022/04/08 07:13:28;;;;;;;3.57;0.30;;;6.60;99.90;;;;;;4945265;28;20027;-87
2022/04/08 07:15:56;;;;;;;1.37;0.20;;;6.60;99.90;;;;;;4963122;28;20027;-89
2022/04/08 07:18:28;;;;;;;0.37;0.20;;;6.60;99.90;;;;;;4965551;28;20030;-89
2022/04/08 07:20:53;;;;;;;2.45;0.38;;;6.60;99.90;;;;;;4971785;28;20033;-89
2022/04/08 07:23:22;;;;;;;0.27;0.10;;;6.70;99.90;;;;;;4978048;28;20504;-89
2022/04/08 07:25:48;;;;;;;4.53;0.30;;;6.60;99.90;;;;;;4964742;28;20078;-88
2022/04/08 07:28:23;;;;;;;1.10;0.10;;;6.60;99.90;;;;;;4961523;28;20043;-89
2022/04/08 07:30:50;;;;;;;0.57;0.10;;;6.70;99.90;;;;;;4977282;28;20034;-90
2022/04/08 07:33:22;;;;;;;0.67;0.10;;;6.80;99.90;;;;;;4960540;28;20505;-89
2022/04/08 07:35:50;;;;;;;1.90;0.20;;;6.70;99.90;;;;;;4947724;28;20042;-88
2022/04/08 07:38:16;;;;;;;4.23;0.30;;;6.70;99.90;;;;;;4960771;28;20027;-88
2022/04/08 07:40:42;;;;;;;2.20;0.20;;;6.80;99.90;;;;;;4983254;28;20485;-88
2022/04/08 07:43:10;;;;;;;1.77;0.20;;;6.80;99.90;;;;;;4965790;28;20022;-89
2022/04/08 07:45:38;;;;;;;0.20;0.10;;;6.90;99.90;;;;;;4968870;28;20063;-89
2022/04/08 07:48:04;;;;;;;2.03;0.20;;;6.80;99.90;;;;;;4978749;28;20101;-89
2022/04/08 07:50:30;;;;;;;2.47;0.37;;;6.80;99.90;;;;;;4973989;28;20090;-88
2022/04/08 07:52:56;;;;;;;1.20;0.27;;;6.80;99.90;;;;;;4970501;28;20029;-89
2022/04/08 07:55:24;;;;;;;2.30;0.30;;;6.80;99.90;;;;;;4981305;28;20054;-89
2022/04/08 07:57:51;;;;;;;1.73;0.30;;;6.80;99.90;;;;;;4971507;28;20031;-88
2022/04/08 08:00:22;;;;;;;2.70;0.23;;;6.80;99.90;;;;;;4967642;28;20024;-88
2022/04/08 08:02:51;;;;;;;1.10;0.33;;;6.90;99.90;;;;;;4964427;28;20105;-88
2022/04/08 08:05:18;;;;;;;0.80;0.20;;;6.90;99.90;;;;;;4965308;28;20026;-87
2022/04/08 08:07:50;;;;;;;2.80;0.60;;;6.90;99.90;;;;;;4959055;28;20047;-87
2022/04/08 08:10:28;;;;;;;1.08;0.30;;;7.00;99.90;;;;;;4976657;28;20026;-89
2022/04/08 08:12:54;;;;;;;1.27;0.30;;;7.00;99.90;;;;;;4977882;28;20608;-88
2022/04/08 08:15:22;;;;;;;0.27;0.10;;;7.10;99.90;;;;;;4957968;28;20067;-88
2022/04/08 08:17:48;;;;;;;2.53;0.40;;;7.20;99.90;;;;;;4972893;28;20814;-88
2022/04/08 08:20:24;;;;;;;2.83;0.20;;;7.10;99.90;;;;;;4969529;28;20066;-89
2022/04/08 08:22:51;;;;;;;0.77;0.20;;;7.00;99.90;;;;;;4960512;28;20039;-89
2022/04/08 08:25:20;;;;;;;0.83;0.30;;;7.00;99.90;;;;;;4961156;28;20136;-89
2022/04/08 08:28:01;;;;;;;0.10;0.00;;;6.90;99.90;;;;;;4960800;28;20037;-89
2022/04/08 08:30:30;;;;;;;4.27;0.30;;;6.90;99.90;;;;;;4953048;28;20043;-89
2022/04/08 08:33:04;;;;;;;0.63;0.10;;;6.80;99.90;;;;;;4939696;29;20123;-90
2022/04/08 08:35:32;;;;;;;2.53;0.30;;;6.70;99.90;;;;;;4939392;28;20035;-88
2022/04/08 08:38:26;;;;;;;;;;;;;;;;;;;;;
2022/04/08 08:40:55;;;;;;;0.73;0.30;;;6.80;99.90;;;;;;4964435;28;20103;-89
2022/04/08 08:43:21;;;;;;;0.90;0.10;;;6.70;99.90;;;;;;4966233;28;20030;-90
2022/04/08 08:45:50;;;;;;;0.73;0.40;;;6.70;99.90;;;;;;4966158;28;20032;-90
2022/04/08 08:48:16;;;;;;;1.37;0.20;;;6.70;99.90;;;;;;4965244;28;20051;-89
2022/04/08 08:50:47;;;;;;;0.40;0.10;;;6.70;99.90;;;;;;4964416;28;20090;-88
2022/04/08 08:53:20;;;;;;;0.97;0.10;;;6.80;99.90;;;;;;4960812;28;20030;-88
2022/04/08 08:55:51;;;;;;;2.27;0.80;;;6.90;99.90;;;;;;4967871;28;20023;-88
2022/04/08 08:58:17;;;;;;;4.60;0.73;;;6.70;99.90;;;;;;4961226;28;20035;-88
2022/04/08 09:00:43;;;;;;;2.67;0.93;;;6.80;99.90;;;;;;4951820;28;20038;-88
2022/04/08 09:03:13;;;;;;;0.40;0.20;;;6.80;99.90;;;;;;4959798;28;20472;-88
2022/04/08 09:05:44;;;;;;;0.20;0.10;;;6.90;99.90;;;;;;4960206;28;20034;-88
2022/04/08 09:08:11;;;;;;;7.33;1.10;;;7.00;99.90;;;;;;4978246;28;20024;-87
2022/04/08 09:10:45;;;;;;;1.27;0.50;;;6.90;99.90;;;;;;4966357;28;20047;-88
2022/04/08 09:13:18;;;;;;;1.87;0.47;;;6.90;99.90;;;;;;4966883;28;20090;-88
2022/04/08 09:16:01;;;;;;;0.20;0.10;;;7.00;99.90;;;;;;4972210;28;20066;-87
2022/04/08 09:18:32;;;;;;;0.40;0.10;;;7.00;99.90;;;;;;4973278;28;20033;-89
2022/04/08 09:20:58;;;;;;;1.97;0.27;;;6.90;99.90;;;;;;4965082;28;20027;-89
2022/04/08 09:23:25;;;;;;;0.63;0.20;;;6.90;99.90;;;;;;4964197;28;20035;-89
2022/04/08 09:26:14;;;;;;;0.43;0.10;;;7.00;99.90;;;;;;4966531;28;20085;-90
2022/04/08 09:28:46;;;;;;;0.53;0.10;;;7.20;99.90;;;;;;4964282;28;20142;-89
2022/04/08 09:31:19;;;;;;;0.75;0.10;;;7.30;99.90;;;;;;4975342;28;20073;-89
2022/04/08 09:33:54;;;;;;;0.63;0.10;;;7.40;99.90;;;;;;4973480;28;20027;-89
2022/04/08 09:36:30;;;;;;;0.47;0.10;;;7.30;99.90;;;;;;4969467;28;20037;-88
2022/04/08 09:38:56;;;;;;;2.43;0.20;;;7.50;99.90;;;;;;4962570;29;20046;-89
2022/04/08 09:41:39;;;;;;;0.67;0.10;;;7.60;99.90;;;;;;4964105;28;20489;-90
2022/04/08 09:44:10;;;;;;;0.40;0.10;;;7.70;99.90;;;;;;4971639;28;20114;-89
2022/04/08 09:46:36;;;;;;;0.10;0.00;;;7.90;99.90;;;;;;4950037;28;20062;-89
2022/04/08 09:49:08;;;;;;;1.00;0.23;;;7.70;99.90;;;;;;4944499;28;20039;-90
2022/04/08 09:51:42;;;;;;;0.95;0.10;;;7.80;99.90;;;;;;4944518;29;20027;-89
2022/04/08 09:54:10;;;;;;;0.20;0.10;;;7.80;99.90;;;;;;4954490;28;20496;-89
2022/04/08 09:56:37;;;;;;;1.57;0.20;;;7.70;99.90;;;;;;4960977;28;20027;-89
2022/04/08 09:59:08;;;;;;;2.07;0.13;;;7.80;99.90;;;;;;4962326;28;20034;-89
2022/04/08 10:01:40;;;;;;;0.83;0.20;;;7.80;99.90;;;;;;4962765;28;20050;-89
2022/04/08 10:04:09;;;;;;;;;;;8.00;99.90;;;;;;4961406;28;20118;-88
2022/04/08 10:06:40;;;;;;;0.30;0.10;;;7.80;99.90;;;;;;4961631;28;19906;-89
2022/04/08 10:09:19;;;;;;;0.03;0.00;;;7.80;99.90;;;;;;4960204;28;20027;-90
2022/04/08 10:12:09;;;;;;;0.60;0.10;;;7.80;99.90;;;;;;4960801;28;20027;-90
2022/04/08 10:15:14;;;;;;;0.20;0.00;;;7.80;99.90;;;;;;4957876;28;20027;-90
2022/04/08 10:17:50;;;;;;;0.50;0.10;;;7.90;99.90;;;;;;4975437;28;20041;-89
2022/04/08 10:20:20;;;;;;;0.00;0.00;;;8.00;99.90;;;;;;4964514;28;20405;-89
2022/04/08 10:22:47;;;;;;;0.67;0.20;;;8.20;99.90;;;;;;4973858;28;20024;-89
2022/04/08 10:25:15;;;;;;;0.10;0.10;;;8.20;99.90;;;;;;4972805;28;20042;-88
2022/04/08 10:27:44;;;;;;;0.60;0.10;;;8.10;99.90;;;;;;4973249;28;20039;-88
2022/04/08 10:30:25;;;;;;;0.20;0.00;;;8.10;99.90;;;;;;4956426;28;20039;-89
2022/04/08 10:33:03;;;;;;;0.47;0.10;;;8.10;99.90;;;;;;4944203;28;20043;-89
2022/04/08 10:35:30;;;;;;;0.60;0.15;;;8.00;99.90;;;;;;4942210;29;20035;-89
2022/04/08 10:38:07;;;;;;;0.30;0.10;;;8.00;99.90;;;;;;4956601;28;20062;-87
2022/04/08 10:40:40;;;;;;;0.30;0.10;;;8.00;99.90;;;;;;4965626;28;20027;-88
2022/04/08 10:43:08;;;;;;;0.73;0.20;;;8.00;99.90;;;;;;4974713;28;20018;-88
2022/04/08 10:45:38;;;;;;;0.47;0.20;;;8.00;99.90;;;;;;4955310;28;20023;-88
2022/04/08 10:48:14;;;;;;;2.65;0.73;;;8.00;99.90;;;;;;4962903;28;20027;-88
2022/04/08 10:50:40;;;;;;;1.83;0.90;;;8.00;99.90;;;;;;4962678;28;20034;-87
2022/04/08 10:53:11;;;;;;;1.02;0.57;;;7.90;99.90;;;;;;4968202;28;20031;-89
2022/04/08 10:56:12;;;;;;;1.55;0.20;;;7.90;99.90;;;;;;4963430;28;20110;-89
2022/04/08 10:58:43;;;;;;;1.00;0.20;;;7.90;99.90;;;;;;4956398;28;20071;-88
2022/04/08 11:01:25;;;;;;;0.20;0.10;;;8.00;99.90;;;;;;4961914;28;20038;-89
2022/04/08 11:04:01;;;;;;;0.35;0.10;;;7.80;99.90;;;;;;4959346;28;20031;-88
2022/04/08 11:06:33;;;;;;;0.47;0.10;;;7.80;99.90;;;;;;4957670;28;20034;-88
2022/04/08 11:09:19;;;;;;;1.33;0.20;;;7.80;99.90;;;;;;4952710;28;20032;-88
2022/04/08 11:11:54;;;;;;;1.87;0.50;;;7.70;99.90;;;;;;4956958;28;20094;-88
2022/04/08 11:14:20;;;;;;;0.10;0.10;;;7.80;99.90;;;;;;4953466;28;20038;-88
2022/04/08 11:16:52;;;;;;;0.20;0.20;;;7.70;99.90;;;;;;4974898;28;20653;-89
2022/04/08 11:19:32;;;;;;;0.25;0.10;;;7.80;99.90;;;;;;4958509;28;20031;-88
2022/04/08 11:24:46;;;;;;;0.90;0.27;;;7.70;99.90;;;;;;4987077;23;20101;-87
2022/04/08 11:27:12;;;;;;;1.77;0.20;;;7.50;99.90;;;;;;4978109;28;20023;-86
2022/04/08 11:29:37;;;;;;;0.50;0.20;;;7.50;99.90;;;;;;4970723;28;20046;-86
2022/04/08 11:32:10;;;;;;;1.17;0.50;;;7.60;99.90;;;;;;4978983;28;20057;-86
2022/04/08 11:34:38;;;;;;;0.83;0.20;;;7.50;99.90;;;;;;4979488;28;20508;-87
2022/04/08 11:37:04;;;;;;;0.60;0.10;;;7.50;99.90;;;;;;4984373;28;20169;-88
2022/04/08 11:39:32;;;;;;;0.70;0.13;;;7.50;99.90;;;;;;4979925;28;20096;-85
2022/04/08 11:42:03;;;;;;;1.33;0.30;;;7.50;99.90;;;;;;4995652;28;20023;-86
2022/04/08 11:44:29;;;;;;;0.87;0.20;;;7.50;99.90;;;;;;4983623;28;20025;-87
2022/04/08 11:47:06;;;;;;;0.70;0.10;;;7.50;99.90;;;;;;4975399;28;20026;-87
2022/04/08 11:49:32;;;;;;;0.53;0.20;;;7.50;99.90;;;;;;4974027;28;20118;-87
2022/04/08 11:52:05;;;;;;;0.85;0.30;;;7.50;99.90;;;;;;4977642;28;20054;-86
2022/04/08 11:54:37;;;;;;;1.33;0.33;;;7.60;99.90;;;;;;4973147;28;20051;-86
2022/04/08 11:57:05;;;;;;;;;;;7.60;99.90;;;;;;4975991;28;20038;-86
2022/04/08 11:59:32;;;;;;;0.40;0.20;;;7.70;99.90;;;;;;4972880;28;20384;-87
2022/04/08 12:01:59;;;;;;;0.30;0.17;;;7.70;99.90;;;;;;4978257;28;20074;-86
2022/04/08 12:04:25;;;;;;;0.57;0.30;;;7.60;99.90;;;;;;4970056;28;20377;-86
2022/04/08 12:06:51;;;;;;;1.27;0.23;;;7.70;99.90;;;;;;4984253;28;20022;-87
2022/04/08 12:09:20;;;;;;;2.03;0.33;;;7.50;99.90;;;;;;4960808;28;20081;-85
2022/04/08 12:11:53;;;;;;;0.50;0.20;;;7.40;99.90;;;;;;4963822;28;20058;-88
2022/04/08 12:14:21;;;;;;;0.40;0.20;;;7.40;99.90;;;;;;4971607;28;20083;-87
2022/04/08 12:16:51;;;;;;;0.60;0.23;;;7.30;99.90;;;;;;4982001;28;20030;-86
2022/04/08 12:19:29;;;;;;;1.33;0.47;;;7.20;99.90;;;;;;4970300;28;20303;-85
2022/04/08 12:21:54;;;;;;;0.60;0.30;;;7.20;99.90;;;;;;4991334;28;20038;-87
2022/04/08 12:24:26;;;;;;;1.07;0.37;;;7.20;99.90;;;;;;4994095;23;20173;-87
2022/04/08 12:26:58;;;;;;;0.70;0.20;;;7.40;99.90;;;;;;4968031;28;20443;-88
2022/04/08 12:29:30;;;;;;;0.65;0.40;;;7.60;99.90;;;;;;4947785;28;20765;-88
2022/04/08 12:31:59;;;;;;;0.98;0.40;;;7.30;99.90;;;;;;4953512;28;20498;-85
2022/04/08 12:34:25;;;;;;;1.40;0.40;;;7.20;99.90;;;;;;4955106;28;20027;-85
2022/04/08 12:36:50;;;;;;;1.37;0.40;;;7.20;99.90;;;;;;4946669;29;20070;-87
2022/04/08 12:39:21;;;;;;;1.20;0.40;;;7.00;99.90;;;;;;4932815;29;20034;-86
2022/04/08 12:41:48;;;;;;;0.87;0.40;;;7.00;99.90;;;;;;4949676;28;20090;-88
2022/04/08 12:44:14;;;;;;;0.80;0.30;;;7.00;99.90;;;;;;4957365;28;20019;-86
2022/04/08 12:46:40;;;;;;;0.73;0.30;;;7.00;99.90;;;;;;4955583;28;20027;-86
2022/04/08 12:49:06;;;;;;;0.70;0.23;;;7.00;99.90;;;;;;4955956;28;20024;-86
2022/04/08 12:51:33;;;;;;;0.70;0.20;;;7.00;99.90;;;;;;4954101;28;20023;-86
2022/04/08 12:53:59;;;;;;;0.20;0.20;;;7.00;99.90;;;;;;4958354;28;20063;-85
2022/04/08 12:56:26;;;;;;;0.57;0.37;;;7.00;99.90;;;;;;4955515;28;20097;-86
2022/04/08 12:58:52;;;;;;;0.67;0.27;;;7.00;99.90;;;;;;4956136;28;20026;-87
2022/04/08 13:01:18;;;;;;;0.83;0.30;;;7.10;99.90;;;;;;4955742;28;20494;-87
2022/04/08 13:03:47;;;;;;;1.43;0.50;;;7.10;99.90;;;;;;4957420;28;20075;-87
2022/04/08 13:06:13;;;;;;;1.40;0.37;;;7.10;99.90;;;;;;4956046;28;20111;-87